Rigaud, Canada
Current Conditions -  °F | °C
As of 6:40 AM on Tuesday 21 Oct 2014 (Local Time) from CYMX Reporting Station
Overcast Overcast  
Wind Chill: 35°   Ceiling: 2500
Heat Index: 39°   Visibility: 25mi
Dew Point: 34°   Wind: 6mph
Humidity: 81%   Direction: 40°NE
Pressure: 29.98"   Gusts: NA
Location:  45.47°N, 74.3°W
Report Text: CYMX 211040Z 04005KT 340V090 25SM BKN025 OVC041 04/01 A2998 RMK SC5SC3 SLP156
Loading
Personal Weather Stations






























Interactive Weather Map
Tropical Storm Tracking
New forecast layout! Learn more

10-Day Weather Forecast

Advertisements
Track Severe Weather on mobile